sensor_id;sensor_type;location;lat;lon;timestamp;pressure;altitude;pressure_sealevel;temperature;humidity
45813;BME280;31519;45.408;10.962;2023-09-19T00:00:45;100343.16;;;23.58;90.75
45813;BME280;31519;45.408;10.962;2023-09-19T00:03:35;100350.91;;;23.60;90.23
45813;BME280;31519;45.408;10.962;2023-09-19T00:06:07;100343.03;;;23.79;90.03
45813;BME280;31519;45.408;10.962;2023-09-19T00:08:36;100350.41;;;23.82;89.52
45813;BME280;31519;45.408;10.962;2023-09-19T00:11:03;100349.56;;;23.93;89.38
45813;BME280;31519;45.408;10.962;2023-09-19T00:13:32;100353.13;;;23.82;90.01
45813;BME280;31519;45.408;10.962;2023-09-19T00:16:01;100355.00;;;23.93;89.12
45813;BME280;31519;45.408;10.962;2023-09-19T00:18:29;100358.47;;;24.00;89.18
45813;BME280;31519;45.408;10.962;2023-09-19T00:20:59;100356.97;;;23.92;89.61
45813;BME280;31519;45.408;10.962;2023-09-19T00:23:28;100351.59;;;23.74;90.90
45813;BME280;31519;45.408;10.962;2023-09-19T00:26:00;100351.59;;;23.81;90.59
45813;BME280;31519;45.408;10.962;2023-09-19T00:28:28;100356.28;;;23.70;91.05
45813;BME280;31519;45.408;10.962;2023-09-19T00:30:57;100356.34;;;23.63;90.72
45813;BME280;31519;45.408;10.962;2023-09-19T00:33:30;100345.00;;;23.75;90.64
45813;BME280;31519;45.408;10.962;2023-09-19T00:35:58;100345.38;;;23.77;90.12
45813;BME280;31519;45.408;10.962;2023-09-19T00:38:26;100338.84;;;23.68;90.87
45813;BME280;31519;45.408;10.962;2023-09-19T00:40:54;100338.84;;;23.61;92.16
45813;BME280;31519;45.408;10.962;2023-09-19T00:43:27;100347.06;;;23.47;93.11
45813;BME280;31519;45.408;10.962;2023-09-19T00:45:56;100326.78;;;23.69;91.33
45813;BME280;31519;45.408;10.962;2023-09-19T00:48:24;100327.56;;;23.66;91.86
45813;BME280;31519;45.408;10.962;2023-09-19T00:50:55;100325.66;;;23.59;92.82
45813;BME280;31519;45.408;10.962;2023-09-19T00:53:24;100325.25;;;23.61;92.69
45813;BME280;31519;45.408;10.962;2023-09-19T00:55:55;100326.88;;;23.48;93.40
45813;BME280;31519;45.408;10.962;2023-09-19T00:58:24;100319.84;;;23.57;92.78
45813;BME280;31519;45.408;10.962;2023-09-19T01:00:52;100310.16;;;23.53;94.14
45813;BME280;31519;45.408;10.962;2023-09-19T01:03:21;100321.81;;;23.39;94.42
45813;BME280;31519;45.408;10.962;2023-09-19T01:05:50;100326.50;;;23.38;95.07
45813;BME280;31519;45.408;10.962;2023-09-19T01:08:19;100326.13;;;23.36;95.06
45813;BME280;31519;45.408;10.962;2023-09-19T01:10:52;100310.50;;;23.58;93.76
45813;BME280;31519;45.408;10.962;2023-09-19T01:18:42;100307.44;;;23.53;94.18
45813;BME280;31519;45.408;10.962;2023-09-19T01:31:42;100320.34;;;23.20;96.52
45813;BME280;31519;45.408;10.962;2023-09-19T01:34:10;100314.13;;;23.23;96.12
45813;BME280;31519;45.408;10.962;2023-09-19T01:36:38;100319.94;;;23.32;95.78
45813;BME280;31519;45.408;10.962;2023-09-19T01:39:10;100317.16;;;23.39;95.24
45813;BME280;31519;45.408;10.962;2023-09-19T01:41:58;100310.56;;;23.44;95.13
45813;BME280;31519;45.408;10.962;2023-09-19T01:44:40;100308.31;;;23.21;96.39
45813;BME280;31519;45.408;10.962;2023-09-19T01:52:35;100322.25;;;23.30;96.80
45813;BME280;31519;45.408;10.962;2023-09-19T01:55:06;100317.97;;;23.36;96.06
45813;BME280;31519;45.408;10.962;2023-09-19T01:57:57;100329.19;;;23.42;96.18
45813;BME280;31519;45.408;10.962;2023-09-19T02:00:27;100326.53;;;23.24;96.51
45813;BME280;31519;45.408;10.962;2023-09-19T02:02:57;100322.28;;;23.20;96.96
45813;BME280;31519;45.408;10.962;2023-09-19T02:05:27;100329.25;;;23.31;96.39
45813;BME280;31519;45.408;10.962;2023-09-19T02:07:55;100329.66;;;23.16;97.34
45813;BME280;31519;45.408;10.962;2023-09-19T02:10:26;100318.44;;;23.07;98.50
45813;BME280;31519;45.408;10.962;2023-09-19T02:12:54;100329.28;;;23.21;96.98
45813;BME280;31519;45.408;10.962;2023-09-19T02:15:22;100328.22;;;22.76;99.91
45813;BME280;31519;45.408;10.962;2023-09-19T02:17:50;100332.47;;;22.70;100.00
45813;BME280;31519;45.408;10.962;2023-09-19T02:20:18;100327.78;;;22.95;99.82
45813;BME280;31519;45.408;10.962;2023-09-19T02:22:48;100334.41;;;22.83;100.00
45813;BME280;31519;45.408;10.962;2023-09-19T02:25:18;100330.53;;;22.77;100.00
45813;BME280;31519;45.408;10.962;2023-09-19T02:27:47;100327.81;;;22.74;100.00
45813;BME280;31519;45.408;10.962;2023-09-19T02:30:15;100328.94;;;22.94;99.73
45813;BME280;31519;45.408;10.962;2023-09-19T02:32:43;100325.06;;;22.91;99.97
45813;BME280;31519;45.408;10.962;2023-09-19T02:35:11;100322.34;;;23.02;98.04
45813;BME280;31519;45.408;10.962;2023-09-19T02:37:39;100332.41;;;23.02;98.17
45813;BME280;31519;45.408;10.962;2023-09-19T02:40:09;100326.25;;;22.90;98.50
45813;BME280;31519;45.408;10.962;2023-09-19T02:42:52;100321.19;;;23.00;98.22
45813;BME280;31519;45.408;10.962;2023-09-19T02:45:23;100325.81;;;23.06;98.14
45813;BME280;31519;45.408;10.962;2023-09-19T02:47:51;100319.19;;;23.21;96.69
45813;BME280;31519;45.408;10.962;2023-09-19T02:50:19;100319.53;;;23.30;95.83
45813;BME280;31519;45.408;10.962;2023-09-19T02:52:47;100313.03;;;23.00;97.99
45813;BME280;31519;45.408;10.962;2023-09-19T02:55:19;100313.81;;;23.00;98.34
45813;BME280;31519;45.408;10.962;2023-09-19T02:57:48;100316.19;;;22.70;100.00
45813;BME280;31519;45.408;10.962;2023-09-19T03:00:17;100319.66;;;22.81;99.89
45813;BME280;31519;45.408;10.962;2023-09-19T03:02:53;100325.47;;;22.93;99.42
45813;BME280;31519;45.408;10.962;2023-09-19T03:05:22;100328.22;;;22.72;100.00
45813;BME280;31519;45.408;10.962;2023-09-19T03:07:54;100331.69;;;22.59;100.00
45813;BME280;31519;45.408;10.962;2023-09-19T03:10:23;100333.63;;;22.58;100.00
45813;BME280;31519;45.408;10.962;2023-09-19T03:12:53;100330.91;;;22.65;100.00
45813;BME280;31519;45.408;10.962;2023-09-19T03:15:21;100329.34;;;22.68;100.00
45813;BME280;31519;45.408;10.962;2023-09-19T03:17:51;100328.56;;;22.46;100.00
45813;BME280;31519;45.408;10.962;2023-09-19T03:20:24;100327.44;;;22.36;100.00
45813;BME280;31519;45.408;10.962;2023-09-19T03:22:53;100333.25;;;22.45;100.00
45813;BME280;31519;45.408;10.962;2023-09-19T03:25:22;100332.84;;;22.29;100.00
45813;BME280;31519;45.408;10.962;2023-09-19T03:27:52;100330.09;;;22.12;100.00
45813;BME280;31519;45.408;10.962;2023-09-19T03:30:23;100336.72;;;22.35;100.00
45813;BME280;31519;45.408;10.962;2023-09-19T03:32:50;100328.97;;;22.41;100.00
45813;BME280;31519;45.408;10.962;2023-09-19T03:35:19;100314.63;;;22.44;100.00
45813;BME280;31519;45.408;10.962;2023-09-19T03:37:48;100322.38;;;22.24;100.00
45813;BME280;31519;45.408;10.962;2023-09-19T03:40:17;100320.03;;;22.19;100.00
45813;BME280;31519;45.408;10.962;2023-09-19T03:42:49;100323.53;;;22.16;100.00
45813;BME280;31519;45.408;10.962;2023-09-19T03:45:17;100319.28;;;22.36;100.00
45813;BME280;31519;45.408;10.962;2023-09-19T03:47:52;100314.25;;;22.49;100.00
45813;BME280;31519;45.408;10.962;2023-09-19T03:50:23;100311.91;;;22.23;100.00
45813;BME280;31519;45.408;10.962;2023-09-19T03:55:19;100307.25;;;22.16;100.00
45813;BME280;31519;45.408;10.962;2023-09-19T03:57:50;100316.16;;;22.41;100.00
45813;BME280;31519;45.408;10.962;2023-09-19T04:00:19;100308.03;;;22.48;100.00
45813;BME280;31519;45.408;10.962;2023-09-19T04:02:51;100300.69;;;22.31;100.00
45813;BME280;31519;45.408;10.962;2023-09-19T04:05:19;100304.91;;;22.32;100.00
45813;BME280;31519;45.408;10.962;2023-09-19T04:07:47;100308.78;;;22.56;100.00
45813;BME280;31519;45.408;10.962;2023-09-19T04:10:15;100307.63;;;22.64;100.00
45813;BME280;31519;45.408;10.962;2023-09-19T04:12:55;100306.88;;;22.71;100.00
45813;BME280;31519;45.408;10.962;2023-09-19T04:15:24;100303.38;;;22.63;99.95
45813;BME280;31519;45.408;10.962;2023-09-19T04:17:54;100304.13;;;22.85;99.05
45813;BME280;31519;45.408;10.962;2023-09-19T04:20:22;100301.03;;;22.58;100.00
45813;BME280;31519;45.408;10.962;2023-09-19T04:22:51;100305.31;;;22.77;99.04
45813;BME280;31519;45.408;10.962;2023-09-19T04:25:19;100301.41;;;22.95;97.29
45813;BME280;31519;45.408;10.962;2023-09-19T04:27:48;100301.00;;;22.97;96.01
45813;BME280;31519;45.408;10.962;2023-09-19T05:25:09;100359.22;;;22.89;95.25
45813;BME280;31519;45.408;10.962;2023-09-19T05:27:38;100366.97;;;22.97;95.21
45813;BME280;31519;45.408;10.962;2023-09-19T05:30:06;100367.34;;;22.61;96.90
45813;BME280;31519;45.408;10.962;2023-09-19T05:32:34;100363.88;;;22.39;98.20
45813;BME280;31519;45.408;10.962;2023-09-19T05:35:02;100370.81;;;22.29;98.53
45813;BME280;31519;45.408;10.962;2023-09-19T05:37:31;100377.03;;;22.26;99.88
45813;BME280;31519;45.408;10.962;2023-09-19T05:39:58;100371.22;;;22.31;99.70
45813;BME280;31519;45.408;10.962;2023-09-19T05:42:27;100385.94;;;22.37;99.19
45813;BME280;31519;45.408;10.962;2023-09-19T05:44:54;100390.22;;;22.38;99.30
45813;BME280;31519;45.408;10.962;2023-09-19T05:47:23;100398.75;;;22.47;98.63
45813;BME280;31519;45.408;10.962;2023-09-19T05:49:52;100404.59;;;22.49;98.23
45813;BME280;31519;45.408;10.962;2023-09-19T05:52:21;100405.38;;;22.61;97.78
45813;BME280;31519;45.408;10.962;2023-09-19T05:54:49;100405.75;;;22.55;98.33
45813;BME280;31519;45.408;10.962;2023-09-19T05:57:18;100407.63;;;22.23;100.00
45813;BME280;31519;45.408;10.962;2023-09-19T05:59:46;100410.38;;;22.27;100.00
45813;BME280;31519;45.408;10.962;2023-09-19T06:02:16;100416.19;;;22.25;100.00
45813;BME280;31519;45.408;10.962;2023-09-19T06:04:44;100408.81;;;22.26;100.00
45813;BME280;31519;45.408;10.962;2023-09-19T06:07:12;100418.22;;;22.81;98.02
45813;BME280;31519;45.408;10.962;2023-09-19T06:09:40;100423.25;;;22.79;98.19
45813;BME280;31519;45.408;10.962;2023-09-19T06:12:08;100415.84;;;22.59;99.69
45813;BME280;31519;45.408;10.962;2023-09-19T06:14:36;100417.03;;;22.82;97.99
45813;BME280;31519;45.408;10.962;2023-09-19T06:17:04;100417.81;;;22.90;96.71
45813;BME280;31519;45.408;10.962;2023-09-19T06:19:32;100415.50;;;22.95;96.26
45813;BME280;31519;45.408;10.962;2023-09-19T06:22:01;100417.81;;;23.08;95.52
45813;BME280;31519;45.408;10.962;2023-09-19T06:24:28;100423.97;;;23.51;91.68
45813;BME280;31519;45.408;10.962;2023-09-19T06:26:57;100421.47;;;23.88;89.99
45813;BME280;31519;45.408;10.962;2023-09-19T06:29:25;100426.28;;;24.39;85.25
45813;BME280;31519;45.408;10.962;2023-09-19T06:31:53;100427.34;;;24.59;84.43
45813;BME280;31519;45.408;10.962;2023-09-19T06:34:21;100431.13;;;24.72;82.65
45813;BME280;31519;45.408;10.962;2023-09-19T06:36:51;100425.81;;;25.03;81.18
45813;BME280;31519;45.408;10.962;2023-09-19T06:39:19;100434.00;;;25.06;80.09
45813;BME280;31519;45.408;10.962;2023-09-19T06:41:47;100427.22;;;25.22;79.21
45813;BME280;31519;45.408;10.962;2023-09-19T06:44:16;100427.50;;;24.90;80.13
45813;BME280;31519;45.408;10.962;2023-09-19T06:46:44;100426.69;;;24.41;80.74
45813;BME280;31519;45.408;10.962;2023-09-19T06:49:14;100428.25;;;24.42;81.64
45813;BME280;31519;45.408;10.962;2023-09-19T06:51:43;100429.47;;;24.86;78.95
45813;BME280;31519;45.408;10.962;2023-09-19T06:54:11;100436.22;;;24.67;78.80
45813;BME280;31519;45.408;10.962;2023-09-19T06:56:39;100434.78;;;24.52;81.45
45813;BME280;31519;45.408;10.962;2023-09-19T06:59:09;100438.00;;;24.91;79.39
45813;BME280;31519;45.408;10.962;2023-09-19T07:01:37;100431.53;;;25.19;79.65
45813;BME280;31519;45.408;10.962;2023-09-19T07:04:05;100435.34;;;25.29;77.68
45813;BME280;31519;45.408;10.962;2023-09-19T07:06:34;100437.31;;;25.25;78.32
45813;BME280;31519;45.408;10.962;2023-09-19T07:09:02;100431.53;;;25.53;76.57
45813;BME280;31519;45.408;10.962;2023-09-19T07:11:30;100432.66;;;25.22;74.50
45813;BME280;31519;45.408;10.962;2023-09-19T07:13:58;100440.56;;;25.50;73.72
45813;BME280;31519;45.408;10.962;2023-09-19T07:16:28;100441.31;;;25.88;71.59
45813;BME280;31519;45.408;10.962;2023-09-19T07:18:57;100449.34;;;25.68;70.12
45813;BME280;31519;45.408;10.962;2023-09-19T07:21:26;100453.38;;;25.90;70.10
45813;BME280;31519;45.408;10.962;2023-09-19T07:23:53;100455.31;;;26.24;68.26
45813;BME280;31519;45.408;10.962;2023-09-19T07:26:22;100455.00;;;26.45;67.51
45813;BME280;31519;45.408;10.962;2023-09-19T07:28:49;100445.38;;;26.07;67.45
45813;BME280;31519;45.408;10.962;2023-09-19T07:31:17;100454.97;;;26.18;66.81
45813;BME280;31519;45.408;10.962;2023-09-19T07:33:45;100451.50;;;25.84;67.74
45813;BME280;31519;45.408;10.962;2023-09-19T07:36:14;100455.69;;;25.92;67.35
45813;BME280;31519;45.408;10.962;2023-09-19T07:38:42;100453.78;;;26.19;65.27
45813;BME280;31519;45.408;10.962;2023-09-19T07:41:10;100462.38;;;26.21;65.51
45813;BME280;31519;45.408;10.962;2023-09-19T07:43:38;100469.47;;;26.69;63.93
45813;BME280;31519;45.408;10.962;2023-09-19T07:46:08;100461.88;;;27.07;62.19
45813;BME280;31519;45.408;10.962;2023-09-19T07:48:39;100473.13;;;27.32;60.62
45813;BME280;31519;45.408;10.962;2023-09-19T07:51:08;100474.88;;;27.22;59.28
45813;BME280;31519;45.408;10.962;2023-09-19T07:53:36;100472.91;;;27.23;58.92
45813;BME280;31519;45.408;10.962;2023-09-19T07:56:06;100476.84;;;26.99;58.84
45813;BME280;31519;45.408;10.962;2023-09-19T07:58:35;100481.19;;;26.96;58.20
45813;BME280;31519;45.408;10.962;2023-09-19T08:01:08;100479.81;;;27.54;57.40
45813;BME280;31519;45.408;10.962;2023-09-19T08:03:37;100480.06;;;27.60;56.65
45813;BME280;31519;45.408;10.962;2023-09-19T08:06:12;100480.16;;;27.56;56.78
45813;BME280;31519;45.408;10.962;2023-09-19T08:08:41;100493.28;;;28.04;55.93
45813;BME280;31519;45.408;10.962;2023-09-19T08:11:09;100476.88;;;27.85;56.71
45813;BME280;31519;45.408;10.962;2023-09-19T08:13:40;100481.06;;;28.09;56.10
45813;BME280;31519;45.408;10.962;2023-09-19T08:16:12;100486.56;;;27.89;57.19
45813;BME280;31519;45.408;10.962;2023-09-19T08:18:40;100485.78;;;28.08;56.74
45813;BME280;31519;45.408;10.962;2023-09-19T08:21:11;100490.63;;;27.61;57.49
45813;BME280;31519;45.408;10.962;2023-09-19T08:23:42;100496.94;;;27.98;56.83
45813;BME280;31519;45.408;10.962;2023-09-19T08:26:11;100497.94;;;27.68;56.64
45813;BME280;31519;45.408;10.962;2023-09-19T08:28:39;100510.19;;;27.60;55.77
45813;BME280;31519;45.408;10.962;2023-09-19T08:31:08;100505.00;;;27.42;56.72
45813;BME280;31519;45.408;10.962;2023-09-19T08:33:37;100501.25;;;27.56;56.07
45813;BME280;31519;45.408;10.962;2023-09-19T08:36:06;100509.53;;;27.29;57.00
45813;BME280;31519;45.408;10.962;2023-09-19T08:38:36;100513.22;;;27.42;56.03
45813;BME280;31519;45.408;10.962;2023-09-19T08:41:05;100512.09;;;27.83;55.14
45813;BME280;31519;45.408;10.962;2023-09-19T08:43:34;100509.84;;;27.77;56.12
45813;BME280;31519;45.408;10.962;2023-09-19T08:46:13;100514.63;;;27.73;54.79
45813;BME280;31519;45.408;10.962;2023-09-19T08:48:46;100513.22;;;27.42;56.03
45813;BME280;31519;45.408;10.962;2023-09-19T08:51:38;100526.16;;;27.85;54.86
45813;BME280;31519;45.408;10.962;2023-09-19T08:54:07;100520.16;;;28.09;54.19
45813;BME280;31519;45.408;10.962;2023-09-19T08:56:37;100516.34;;;28.43;53.34
45813;BME280;31519;45.408;10.962;2023-09-19T08:59:07;100514.78;;;27.86;55.09
45813;BME280;31519;45.408;10.962;2023-09-19T09:01:39;100519.81;;;27.88;54.64
45813;BME280;31519;45.408;10.962;2023-09-19T09:04:09;100531.09;;;28.13;54.17
45813;BME280;31519;45.408;10.962;2023-09-19T09:06:41;100528.09;;;27.84;54.36
45813;BME280;31519;45.408;10.962;2023-09-19T09:09:11;100525.97;;;28.51;52.18
45813;BME280;31519;45.408;10.962;2023-09-19T09:11:39;100527.94;;;29.02;50.78
45813;BME280;31519;45.408;10.962;2023-09-19T09:14:07;100524.34;;;29.05;51.89
45813;BME280;31519;45.408;10.962;2023-09-19T09:16:36;100531.22;;;28.61;53.23
45813;BME280;31519;45.408;10.962;2023-09-19T09:19:04;100520.53;;;28.83;53.21
45813;BME280;31519;45.408;10.962;2023-09-19T09:21:32;100524.66;;;28.75;53.27
45813;BME280;31519;45.408;10.962;2023-09-19T09:27:11;100530.50;;;28.93;52.04
45813;BME280;31519;45.408;10.962;2023-09-19T09:29:47;100525.53;;;29.21;52.19
45813;BME280;31519;45.408;10.962;2023-09-19T09:32:18;100524.81;;;29.65;50.54
45813;BME280;31519;45.408;10.962;2023-09-19T09:34:48;100524.94;;;29.74;50.21
45813;BME280;31519;45.408;10.962;2023-09-19T09:37:17;100528.28;;;29.37;51.58
45813;BME280;31519;45.408;10.962;2023-09-19T09:40:21;100530.16;;;29.24;52.62
45813;BME280;31519;45.408;10.962;2023-09-19T09:42:44;100534.09;;;29.39;50.63
45813;BME280;31519;45.408;10.962;2023-09-19T09:45:21;100528.97;;;29.08;52.07
45813;BME280;31519;45.408;10.962;2023-09-19T09:48:02;100534.28;;;29.32;51.70
45813;BME280;31519;45.408;10.962;2023-09-19T09:50:46;100523.03;;;28.94;52.47
45813;BME280;31519;45.408;10.962;2023-09-19T09:53:27;100524.59;;;28.95;52.78
45813;BME280;31519;45.408;10.962;2023-09-19T09:56:08;100513.06;;;29.48;51.37
45813;BME280;31519;45.408;10.962;2023-09-19T10:01:15;100519.38;;;30.19;49.23
45813;BME280;31519;45.408;10.962;2023-09-19T10:03:45;100512.31;;;30.06;49.28
45813;BME280;31519;45.408;10.962;2023-09-19T10:06:17;100509.59;;;30.44;48.33
45813;BME280;31519;45.408;10.962;2023-09-19T10:09:03;100517.91;;;29.73;49.70
45813;BME280;31519;45.408;10.962;2023-09-19T10:11:40;100509.81;;;29.82;49.58
45813;BME280;31519;45.408;10.962;2023-09-19T10:14:19;100512.66;;;29.79;50.33
45813;BME280;31519;45.408;10.962;2023-09-19T10:16:51;100506.97;;;30.27;48.06
45813;BME280;31519;45.408;10.962;2023-09-19T10:19:29;100519.66;;;29.96;48.69
45813;BME280;31519;45.408;10.962;2023-09-19T10:22:01;100519.53;;;30.54;48.26
45813;BME280;31519;45.408;10.962;2023-09-19T10:24:29;100511.06;;;30.73;46.61
45813;BME280;31519;45.408;10.962;2023-09-19T10:26:59;100523.28;;;29.77;48.64
45813;BME280;31519;45.408;10.962;2023-09-19T10:29:28;100516.13;;;30.75;46.72
45813;BME280;31519;45.408;10.962;2023-09-19T10:31:58;100522.84;;;31.12;46.44
45813;BME280;31519;45.408;10.962;2023-09-19T10:34:28;100524.19;;;30.57;46.28
45813;BME280;31519;45.408;10.962;2023-09-19T10:36:58;100527.09;;;31.13;45.63
45813;BME280;31519;45.408;10.962;2023-09-19T10:39:33;100525.34;;;31.19;46.35
45813;BME280;31519;45.408;10.962;2023-09-19T10:42:06;100519.88;;;30.68;47.06
45813;BME280;31519;45.408;10.962;2023-09-19T10:44:37;100517.50;;;31.30;44.07
45813;BME280;31519;45.408;10.962;2023-09-19T10:47:10;100513.50;;;31.31;43.56
45813;BME280;31519;45.408;10.962;2023-09-19T10:49:45;100514.19;;;31.70;43.54
45813;BME280;31519;45.408;10.962;2023-09-19T10:52:17;100508.72;;;32.53;41.83
45813;BME280;31519;45.408;10.962;2023-09-19T10:54:48;100505.94;;;32.53;42.08
45813;BME280;31519;45.408;10.962;2023-09-19T10:57:21;100512.09;;;32.04;43.23
45813;BME280;31519;45.408;10.962;2023-09-19T11:00:04;100514.00;;;32.38;42.45
45813;BME280;31519;45.408;10.962;2023-09-19T11:05:40;100499.81;;;31.96;43.40
45813;BME280;31519;45.408;10.962;2023-09-19T11:08:09;100494.53;;;31.80;43.50
45813;BME280;31519;45.408;10.962;2023-09-19T11:10:45;100496.19;;;30.96;44.54
45813;BME280;31519;45.408;10.962;2023-09-19T11:13:25;100497.44;;;31.64;41.99
45813;BME280;31519;45.408;10.962;2023-09-19T11:26:57;100489.06;;;31.67;42.70
45813;BME280;31519;45.408;10.962;2023-09-19T11:29:36;100498.41;;;31.36;43.70
45813;BME280;31519;45.408;10.962;2023-09-19T11:32:05;100487.78;;;30.65;45.04
45813;BME280;31519;45.408;10.962;2023-09-19T11:42:47;100490.63;;;32.52;40.09
45813;BME280;31519;45.408;10.962;2023-09-19T11:48:26;100483.63;;;32.29;39.42
45813;BME280;31519;45.408;10.962;2023-09-19T11:50:54;100498.38;;;32.75;39.11
45813;BME280;31519;45.408;10.962;2023-09-19T11:53:22;100496.22;;;32.70;38.30
45813;BME280;31519;45.408;10.962;2023-09-19T11:55:51;100491.38;;;32.92;37.22
45813;BME280;31519;45.408;10.962;2023-09-19T11:58:20;100487.13;;;33.55;36.75
45813;BME280;31519;45.408;10.962;2023-09-19T12:00:53;100487.56;;;32.19;39.62
45813;BME280;31519;45.408;10.962;2023-09-19T12:03:23;100477.47;;;31.94;40.94
45813;BME280;31519;45.408;10.962;2023-09-19T12:05:52;100478.34;;;32.13;41.25
45813;BME280;31519;45.408;10.962;2023-09-19T12:08:20;100472.09;;;31.69;41.90
45813;BME280;31519;45.408;10.962;2023-09-19T12:10:49;100476.75;;;31.59;41.91
45813;BME280;31519;45.408;10.962;2023-09-19T12:13:19;100473.88;;;32.86;39.33
45813;BME280;31519;45.408;10.962;2023-09-19T12:15:48;100472.56;;;32.60;40.02
45813;BME280;31519;45.408;10.962;2023-09-19T12:18:27;100467.75;;;32.91;38.81
45813;BME280;31519;45.408;10.962;2023-09-19T12:20:55;100469.06;;;33.18;38.64
45813;BME280;31519;45.408;10.962;2023-09-19T12:23:23;100461.03;;;33.56;37.87
45813;BME280;31519;45.408;10.962;2023-09-19T12:25:54;100461.47;;;31.80;40.95
45813;BME280;31519;45.408;10.962;2023-09-19T12:28:26;100459.16;;;32.71;38.77
45813;BME280;31519;45.408;10.962;2023-09-19T12:30:54;100460.09;;;33.05;38.44
45813;BME280;31519;45.408;10.962;2023-09-19T12:33:23;100454.00;;;33.37;37.40
45813;BME280;31519;45.408;10.962;2023-09-19T12:35:53;100450.94;;;34.22;36.22
45813;BME280;31519;45.408;10.962;2023-09-19T12:38:22;100451.53;;;35.07;34.64
45813;BME280;31519;45.408;10.962;2023-09-19T12:40:52;100451.84;;;35.09;33.57
45813;BME280;31519;45.408;10.962;2023-09-19T12:43:20;100447.75;;;34.06;34.06
45813;BME280;31519;45.408;10.962;2023-09-19T12:45:49;100451.94;;;33.92;35.26
45813;BME280;31519;45.408;10.962;2023-09-19T12:48:19;100448.44;;;34.90;33.98
45813;BME280;31519;45.408;10.962;2023-09-19T12:51:12;100449.41;;;35.02;33.16
45813;BME280;31519;45.408;10.962;2023-09-19T12:53:45;100452.47;;;35.28;33.88
45813;BME280;31519;45.408;10.962;2023-09-19T12:56:16;100446.16;;;34.56;35.43
45813;BME280;31519;45.408;10.962;2023-09-19T12:58:52;100444.88;;;34.66;35.41
45813;BME280;31519;45.408;10.962;2023-09-19T13:01:23;100447.03;;;34.71;34.90
45813;BME280;31519;45.408;10.962;2023-09-19T13:06:53;100445.94;;;33.94;35.91
45813;BME280;31519;45.408;10.962;2023-09-19T13:09:23;100451.72;;;33.17;37.31
45813;BME280;31519;45.408;10.962;2023-09-19T13:12:03;100442.31;;;34.30;35.83
45813;BME280;31519;45.408;10.962;2023-09-19T13:14:33;100434.50;;;33.68;37.03
45813;BME280;31519;45.408;10.962;2023-09-19T13:17:08;100443.56;;;33.50;36.88
45813;BME280;31519;45.408;10.962;2023-09-19T13:19:51;100435.13;;;34.14;36.36
45813;BME280;31519;45.408;10.962;2023-09-19T13:22:44;100434.53;;;35.23;34.71
45813;BME280;31519;45.408;10.962;2023-09-19T13:25:17;100429.88;;;35.58;33.77
45813;BME280;31519;45.408;10.962;2023-09-19T13:27:50;100431.63;;;35.18;34.25
45813;BME280;31519;45.408;10.962;2023-09-19T13:30:27;100436.84;;;34.02;35.98
45813;BME280;31519;45.408;10.962;2023-09-19T13:33:05;100430.66;;;34.16;35.11
45813;BME280;31519;45.408;10.962;2023-09-19T13:35:38;100427.09;;;33.83;35.72
45813;BME280;31519;45.408;10.962;2023-09-19T13:38:08;100433.59;;;34.13;34.76
45813;BME280;31519;45.408;10.962;2023-09-19T13:40:40;100430.50;;;33.41;36.12
45813;BME280;31519;45.408;10.962;2023-09-19T13:43:11;100429.19;;;34.39;34.85
45813;BME280;31519;45.408;10.962;2023-09-19T13:45:40;100429.69;;;34.61;34.08
45813;BME280;31519;45.408;10.962;2023-09-19T13:48:11;100431.75;;;33.13;36.37
45813;BME280;31519;45.408;10.962;2023-09-19T13:50:40;100432.66;;;33.37;35.62
45813;BME280;31519;45.408;10.962;2023-09-19T13:53:10;100430.63;;;33.65;35.19
45813;BME280;31519;45.408;10.962;2023-09-19T13:55:39;100430.50;;;33.69;35.00
45813;BME280;31519;45.408;10.962;2023-09-19T13:58:07;100424.09;;;33.35;35.49
45813;BME280;31519;45.408;10.962;2023-09-19T14:00:38;100430.47;;;33.78;34.70
45813;BME280;31519;45.408;10.962;2023-09-19T14:03:06;100434.50;;;34.28;33.55
45813;BME280;31519;45.408;10.962;2023-09-19T14:05:35;100441.22;;;32.85;36.93
45813;BME280;31519;45.408;10.962;2023-09-19T14:08:03;100437.28;;;33.13;36.39
45813;BME280;31519;45.408;10.962;2023-09-19T14:10:32;100420.91;;;34.39;34.11
45813;BME280;31519;45.408;10.962;2023-09-19T14:13:00;100423.28;;;34.55;33.31
45813;BME280;31519;45.408;10.962;2023-09-19T14:15:28;100419.75;;;34.55;33.40
45813;BME280;31519;45.408;10.962;2023-09-19T14:17:59;100430.38;;;34.14;34.06
45813;BME280;31519;45.408;10.962;2023-09-19T14:20:29;100420.38;;;33.75;34.09
45813;BME280;31519;45.408;10.962;2023-09-19T14:22:58;100428.22;;;33.67;34.21
45813;BME280;31519;45.408;10.962;2023-09-19T14:25:28;100423.84;;;35.07;32.22
45813;BME280;31519;45.408;10.962;2023-09-19T14:27:58;100427.84;;;34.35;33.10
45813;BME280;31519;45.408;10.962;2023-09-19T14:30:26;100426.31;;;35.58;31.40
45813;BME280;31519;45.408;10.962;2023-09-19T14:32:55;100425.16;;;34.49;32.85
45813;BME280;31519;45.408;10.962;2023-09-19T14:35:26;100423.13;;;33.66;34.18
45813;BME280;31519;45.408;10.962;2023-09-19T14:37:54;100432.88;;;34.03;33.24
45813;BME280;31519;45.408;10.962;2023-09-19T14:40:23;100422.50;;;33.80;33.25
45813;BME280;31519;45.408;10.962;2023-09-19T14:42:51;100421.53;;;34.91;32.04
45813;BME280;31519;45.408;10.962;2023-09-19T14:45:20;100422.91;;;35.78;30.47
45813;BME280;31519;45.408;10.962;2023-09-19T14:47:48;100422.97;;;35.39;30.53